Time;durP1;ratioP1;P1;durP2;ratioP2;P2;SDS_P1;SDS_P2;PMS_P1;PMS_P2;Temp;Humidity;BMP_temperature;BMP_pressure;BME280_temperature;BME280_humidity;BME280_pressure;Samples;Min_cycle;Max_cycle;Signal;HPM_P1;HPM_P2
2024/02/28 00:01:52;;;;;;;20.80;15.87;;;14.50;55.10;;;;;;5001364;28;20626;-55
2024/02/28 00:04:18;;;;;;;21.73;15.77;;;14.50;55.00;;;;;;5002526;28;20349;-57
2024/02/28 00:06:46;;;;;;;18.33;15.37;;;14.50;55.00;;;;;;5005728;28;20868;-57
2024/02/28 00:09:13;;;;;;;21.50;15.27;;;14.50;55.00;;;;;;5000030;28;20433;-57
2024/02/28 00:11:44;;;;;;;20.53;15.23;;;14.50;55.00;;;;;;5001750;28;20483;-59
2024/02/28 00:14:10;;;;;;;29.20;16.23;;;14.50;55.00;;;;;;5006937;28;20433;-57
2024/02/28 00:16:36;;;;;;;21.53;16.07;;;14.50;55.00;;;;;;5008398;28;20437;-57
2024/02/28 00:19:01;;;;;;;23.57;16.70;;;14.50;55.00;;;;;;5007618;28;20417;-58
2024/02/28 00:21:27;;;;;;;22.90;16.67;;;14.50;55.30;;;;;;5007399;28;20285;-59
2024/02/28 00:23:53;;;;;;;23.53;16.53;;;14.50;55.00;;;;;;5001491;28;20197;-58
2024/02/28 00:26:18;;;;;;;20.50;15.60;;;14.50;55.00;;;;;;5007065;28;20212;-55
2024/02/28 00:28:44;;;;;;;21.20;15.50;;;14.50;55.00;;;;;;5003437;28;20178;-58
2024/02/28 00:31:10;;;;;;;19.93;16.17;;;14.50;55.00;;;;;;5008126;28;20210;-58
2024/02/28 00:33:35;;;;;;;20.30;15.83;;;14.60;55.10;;;;;;5001576;28;20243;-58
2024/02/28 00:36:01;;;;;;;22.67;16.17;;;14.50;54.90;;;;;;5001010;28;20205;-58
2024/02/28 00:38:27;;;;;;;21.10;15.90;;;14.50;54.90;;;;;;5002274;28;20669;-57
2024/02/28 00:40:53;;;;;;;24.00;17.23;;;14.50;54.90;;;;;;5001186;28;20544;-58
2024/02/28 00:43:18;;;;;;;22.20;16.07;;;14.50;55.00;;;;;;5002999;28;20447;-57
2024/02/28 00:45:44;;;;;;;20.97;15.50;;;14.50;55.10;;;;;;5003029;28;20188;-55
2024/02/28 00:48:09;;;;;;;20.20;16.60;;;14.50;55.20;;;;;;5002021;28;20182;-57
2024/02/28 00:50:35;;;;;;;22.33;15.60;;;14.50;55.20;;;;;;4998883;28;20599;-58
2024/02/28 00:53:01;;;;;;;19.70;16.63;;;14.40;55.10;;;;;;5006469;28;20284;-59
2024/02/28 00:55:26;;;;;;;19.30;15.70;;;14.50;55.30;;;;;;5004387;28;20222;-57
2024/02/28 00:57:52;;;;;;;18.23;15.30;;;14.50;55.30;;;;;;5003158;28;20197;-57
2024/02/28 01:00:17;;;;;;;22.17;17.20;;;14.50;55.30;;;;;;5002760;28;20198;-59
2024/02/28 01:02:43;;;;;;;21.13;16.47;;;14.50;55.30;;;;;;4998568;28;20184;-58
2024/02/28 01:05:09;;;;;;;22.63;16.27;;;14.50;55.30;;;;;;5002556;28;20209;-58
2024/02/28 01:07:34;;;;;;;20.57;16.00;;;14.50;55.30;;;;;;4999524;28;20277;-56
2024/02/28 01:10:00;;;;;;;19.20;15.83;;;14.50;55.30;;;;;;5001317;28;20208;-58
2024/02/28 01:12:25;;;;;;;23.10;17.97;;;14.40;55.20;;;;;;4999276;28;21018;-59
2024/02/28 01:14:51;;;;;;;22.97;17.83;;;14.30;55.40;;;;;;5006735;28;20693;-58
2024/02/28 01:17:16;;;;;;;22.30;16.20;;;14.30;55.60;;;;;;5005386;28;20229;-58
2024/02/28 01:19:42;;;;;;;23.20;17.47;;;14.30;55.50;;;;;;5004148;28;20593;-58
2024/02/28 01:22:08;;;;;;;21.57;16.40;;;14.40;55.50;;;;;;4999840;28;20212;-57
2024/02/28 01:24:34;;;;;;;21.27;16.40;;;14.40;55.40;;;;;;4999481;28;20196;-56
2024/02/28 01:27:00;;;;;;;21.43;16.90;;;14.40;55.40;;;;;;5003219;28;20469;-58
2024/02/28 01:29:25;;;;;;;22.67;16.40;;;14.40;55.30;;;;;;4998638;28;20244;-57
2024/02/28 01:31:51;;;;;;;19.67;15.40;;;14.50;55.40;;;;;;5002876;28;20209;-57
2024/02/28 01:34:17;;;;;;;26.47;17.20;;;14.50;55.50;;;;;;4999857;28;20190;-55
2024/02/28 01:36:42;;;;;;;22.20;16.77;;;14.50;55.50;;;;;;5000405;28;20724;-59
2024/02/28 01:39:08;;;;;;;21.33;16.83;;;14.50;55.50;;;;;;5001796;28;20182;-59
2024/02/28 01:41:33;;;;;;;21.17;16.70;;;14.50;55.50;;;;;;5001644;28;20178;-57
2024/02/28 01:43:59;;;;;;;25.57;17.63;;;14.50;55.50;;;;;;5007037;28;20186;-57
2024/02/28 01:46:29;;;;;;;20.60;15.93;;;14.50;55.40;;;;;;5001667;28;20197;-57
2024/02/28 01:48:55;;;;;;;20.27;15.60;;;14.50;55.40;;;;;;5006274;28;20182;-58
2024/02/28 01:51:23;;;;;;;20.67;15.37;;;14.50;55.40;;;;;;5007204;28;20465;-56
2024/02/28 01:53:51;;;;;;;22.83;17.30;;;14.50;55.40;;;;;;5007209;28;20416;-57
2024/02/28 01:56:17;;;;;;;21.57;16.03;;;14.50;55.40;;;;;;5009430;28;20795;-58
2024/02/28 01:58:45;;;;;;;23.70;17.70;;;14.50;55.30;;;;;;5004960;28;20528;-57
2024/02/28 02:01:12;;;;;;;23.20;17.00;;;14.40;54.90;;;;;;5007900;28;20444;-56
2024/02/28 02:03:37;;;;;;;22.10;17.30;;;14.40;55.00;;;;;;5010030;28;20443;-57
2024/02/28 02:06:03;;;;;;;20.77;17.10;;;14.40;54.90;;;;;;5011743;28;20511;-57
2024/02/28 02:08:30;;;;;;;20.40;16.60;;;14.40;55.00;;;;;;5009757;28;20209;-57
2024/02/28 02:10:56;;;;;;;22.23;16.27;;;14.40;54.90;;;;;;5005866;28;20518;-58
2024/02/28 02:13:21;;;;;;;21.33;16.03;;;14.40;54.90;;;;;;5006262;28;20821;-58
2024/02/28 02:15:47;;;;;;;23.50;17.00;;;14.40;55.00;;;;;;5008881;28;20448;-57
2024/02/28 02:18:12;;;;;;;23.83;18.07;;;14.40;54.90;;;;;;5005813;28;20189;-58
2024/02/28 02:20:43;;;;;;;19.47;15.67;;;14.40;54.90;;;;;;5006678;28;20245;-56
2024/02/28 02:23:09;;;;;;;23.43;17.73;;;14.30;54.90;;;;;;5003351;28;20205;-57
2024/02/28 02:25:42;;;;;;;22.10;17.50;;;14.30;55.00;;;;;;5010551;28;20447;-57
2024/02/28 02:28:08;;;;;;;23.73;17.93;;;14.30;55.00;;;;;;5009878;28;20566;-58
2024/02/28 02:30:33;;;;;;;24.23;16.77;;;14.30;54.90;;;;;;5007361;28;20417;-57
2024/02/28 02:32:59;;;;;;;21.63;16.70;;;14.20;55.20;;;;;;5009386;28;20261;-57
2024/02/28 02:35:24;;;;;;;23.00;17.17;;;14.20;55.10;;;;;;5002917;28;20274;-55
2024/02/28 02:37:50;;;;;;;21.33;16.43;;;14.20;55.00;;;;;;5008234;28;20288;-58
2024/02/28 02:40:16;;;;;;;24.80;18.03;;;14.30;55.00;;;;;;5002798;28;20218;-58
2024/02/28 02:42:41;;;;;;;23.90;18.97;;;14.30;54.90;;;;;;5000415;28;20190;-56
2024/02/28 02:45:07;;;;;;;20.40;16.67;;;14.20;54.90;;;;;;5001879;28;20189;-57
2024/02/28 02:47:33;;;;;;;25.80;18.23;;;14.30;54.90;;;;;;5000862;28;20206;-58
2024/02/28 02:49:58;;;;;;;23.90;17.70;;;14.30;54.90;;;;;;5001980;28;20443;-57
2024/02/28 02:52:24;;;;;;;22.60;18.17;;;14.20;54.60;;;;;;5000882;28;20336;-58
2024/02/28 02:54:49;;;;;;;20.13;16.73;;;14.20;54.40;;;;;;5004391;28;20182;-58
2024/02/28 02:57:15;;;;;;;23.20;16.27;;;14.20;54.30;;;;;;5006929;28;20609;-58
2024/02/28 02:59:40;;;;;;;21.40;16.33;;;14.10;54.30;;;;;;5006327;28;20649;-59
2024/02/28 03:02:06;;;;;;;22.90;17.93;;;14.20;54.20;;;;;;5003729;28;20209;-58
2024/02/28 03:04:32;;;;;;;22.77;17.43;;;14.20;54.30;;;;;;5001834;28;20210;-59
2024/02/28 03:06:57;;;;;;;23.27;18.57;;;14.20;54.30;;;;;;5003109;28;20205;-58
2024/02/28 03:09:23;;;;;;;25.63;17.33;;;14.20;54.30;;;;;;5001639;28;20179;-58
2024/02/28 03:11:48;;;;;;;22.73;18.53;;;14.30;54.40;;;;;;5002902;28;20780;-59
2024/02/28 03:14:14;;;;;;;23.07;17.07;;;14.30;54.50;;;;;;5001115;28;20680;-59
2024/02/28 03:16:43;;;;;;;23.63;17.83;;;14.30;54.60;;;;;;5002813;28;20213;-60
2024/02/28 03:19:10;;;;;;;24.17;16.67;;;14.30;54.60;;;;;;5004469;28;20182;-57
2024/02/28 03:21:35;;;;;;;23.27;17.60;;;14.30;54.60;;;;;;5003029;28;20467;-57
2024/02/28 03:24:01;;;;;;;22.00;16.40;;;14.30;54.60;;;;;;5003024;28;20445;-58
2024/02/28 03:26:27;;;;;;;23.50;16.73;;;14.30;54.60;;;;;;5003479;28;20213;-55
2024/02/28 03:28:52;;;;;;;20.73;16.23;;;14.30;54.60;;;;;;5001442;28;21173;-58
2024/02/28 03:31:18;;;;;;;22.23;16.57;;;14.30;54.50;;;;;;5003742;28;20329;-60
2024/02/28 03:33:43;;;;;;;21.67;15.50;;;14.30;54.50;;;;;;4999221;28;20228;-60
2024/02/28 03:36:09;;;;;;;19.80;16.17;;;14.30;54.50;;;;;;4999905;28;20202;-59
2024/02/28 03:38:35;;;;;;;20.37;15.67;;;14.30;54.50;;;;;;4996572;28;20186;-58
2024/02/28 03:41:02;;;;;;;20.43;16.00;;;14.30;54.60;;;;;;5006340;28;20280;-60
2024/02/28 03:43:27;;;;;;;21.17;16.27;;;14.30;54.50;;;;;;5005434;28;20567;-58
2024/02/28 03:45:53;;;;;;;22.47;16.47;;;14.30;54.50;;;;;;5005727;28;20437;-60
2024/02/28 03:48:18;;;;;;;22.50;15.97;;;14.30;54.50;;;;;;5004793;28;20186;-60
2024/02/28 03:50:44;;;;;;;24.60;18.00;;;14.30;54.60;;;;;;5009504;28;20243;-60
2024/02/28 03:53:09;;;;;;;20.50;15.97;;;14.30;54.60;;;;;;5006186;28;20661;-60
2024/02/28 03:55:35;;;;;;;25.57;17.47;;;14.30;54.60;;;;;;5009145;28;20216;-60
2024/02/28 03:58:00;;;;;;;22.07;17.27;;;14.20;54.60;;;;;;5009199;28;20272;-59
2024/02/28 04:00:26;;;;;;;21.20;16.20;;;14.20;54.70;;;;;;5009138;28;20826;-57
2024/02/28 04:02:51;;;;;;;23.10;17.90;;;14.20;54.70;;;;;;5007788;28;20190;-59
2024/02/28 04:05:17;;;;;;;21.93;16.47;;;14.20;54.70;;;;;;5007760;28;20197;-60
2024/02/28 04:07:43;;;;;;;22.20;15.70;;;14.20;54.80;;;;;;5009414;28;20194;-59
2024/02/28 04:10:10;;;;;;;21.50;16.73;;;14.20;54.70;;;;;;5009667;28;20243;-60
2024/02/28 04:12:36;;;;;;;24.93;18.67;;;14.20;54.80;;;;;;5008949;28;20237;-60
2024/02/28 04:15:02;;;;;;;22.80;16.30;;;14.20;54.90;;;;;;5007678;28;20531;-60
2024/02/28 04:17:28;;;;;;;22.20;17.63;;;14.10;54.90;;;;;;5005360;28;20989;-58
2024/02/28 04:19:53;;;;;;;22.80;17.67;;;14.10;54.90;;;;;;5002215;28;20425;-59
2024/02/28 04:22:19;;;;;;;24.57;18.10;;;14.20;54.90;;;;;;5003997;28;20197;-57
2024/02/28 04:24:45;;;;;;;24.43;17.13;;;14.10;54.80;;;;;;4999439;28;20541;-59
2024/02/28 04:27:11;;;;;;;24.43;18.00;;;14.10;54.90;;;;;;5003270;28;20605;-59
2024/02/28 04:29:38;;;;;;;23.97;16.43;;;14.10;54.90;;;;;;5002982;28;20279;-57
2024/02/28 04:32:04;;;;;;;25.93;17.20;;;14.00;55.00;;;;;;5001385;28;20468;-60
2024/02/28 04:34:29;;;;;;;24.37;17.57;;;14.10;55.20;;;;;;4999235;28;20586;-58
2024/02/28 04:36:55;;;;;;;24.50;17.63;;;14.10;55.10;;;;;;5005727;28;20573;-58
2024/02/28 04:39:20;;;;;;;27.23;19.53;;;14.10;55.10;;;;;;5002979;28;20267;-59
2024/02/28 04:41:46;;;;;;;24.53;18.67;;;14.10;55.00;;;;;;5001499;28;20791;-59
2024/02/28 04:44:11;;;;;;;24.87;17.67;;;14.10;55.10;;;;;;5003036;28;20182;-59
2024/02/28 04:46:37;;;;;;;23.60;17.43;;;14.10;55.00;;;;;;5000852;28;20239;-59
2024/02/28 04:49:02;;;;;;;25.67;19.10;;;14.10;55.00;;;;;;5000109;28;20217;-59
2024/02/28 04:51:28;;;;;;;26.87;18.00;;;14.00;55.10;;;;;;5000223;28;20217;-58
2024/02/28 04:53:54;;;;;;;26.57;18.40;;;14.00;55.30;;;;;;5001419;28;20856;-59
2024/02/28 04:56:19;;;;;;;25.60;17.63;;;14.00;55.20;;;;;;4997768;28;20609;-57
2024/02/28 04:58:45;;;;;;;25.27;18.87;;;14.00;55.20;;;;;;4998957;28;20566;-59
2024/02/28 05:01:12;;;;;;;27.00;19.23;;;14.00;55.20;;;;;;5001120;28;20186;-58
2024/02/28 05:03:37;;;;;;;27.97;18.60;;;14.00;55.20;;;;;;5000054;28;20276;-59
2024/02/28 05:06:03;;;;;;;25.97;19.13;;;14.00;55.20;;;;;;4999131;28;21105;-59
2024/02/28 05:08:29;;;;;;;24.43;18.50;;;13.90;55.30;;;;;;5000655;28;20269;-57
2024/02/28 05:10:54;;;;;;;25.20;18.60;;;13.90;55.50;;;;;;5002241;28;20547;-58
2024/02/28 05:13:22;;;;;;;34.17;19.43;;;13.90;55.40;;;;;;4998852;28;20198;-59
2024/02/28 05:15:47;;;;;;;27.03;19.10;;;13.90;55.60;;;;;;5000936;28;20745;-61
2024/02/28 05:18:13;;;;;;;28.30;19.00;;;13.80;55.40;;;;;;5003104;28;20543;-59
2024/02/28 05:20:38;;;;;;;25.00;18.77;;;13.80;55.50;;;;;;5002753;28;20293;-57
2024/02/28 05:23:04;;;;;;;23.33;15.90;;;13.80;55.70;;;;;;4999537;28;20197;-59
2024/02/28 05:25:30;;;;;;;20.50;16.13;;;13.80;55.70;;;;;;5000697;28;20328;-59
2024/02/28 05:27:56;;;;;;;22.20;17.10;;;13.80;55.90;;;;;;5003786;28;21004;-59
2024/02/28 05:30:21;;;;;;;21.73;16.13;;;13.70;55.90;;;;;;5007517;28;20182;-59
2024/02/28 05:32:47;;;;;;;20.07;14.93;;;13.60;56.00;;;;;;5004317;28;20673;-60
2024/02/28 05:35:13;;;;;;;19.80;15.60;;;13.60;56.40;;;;;;5002831;28;20189;-59
2024/02/28 05:37:38;;;;;;;21.43;15.80;;;13.60;56.40;;;;;;5003355;28;20202;-56
2024/02/28 05:40:07;;;;;;;15.83;13.60;;;13.50;56.30;;;;;;5003606;28;20884;-57
2024/02/28 05:42:32;;;;;;;18.40;14.73;;;13.50;56.50;;;;;;5003326;28;20268;-58
2024/02/28 05:44:58;;;;;;;15.37;13.60;;;13.40;56.50;;;;;;5008275;28;20473;-58
2024/02/28 05:47:24;;;;;;;19.10;14.00;;;13.30;56.90;;;;;;5007426;28;20206;-59
2024/02/28 05:49:50;;;;;;;20.57;13.90;;;13.30;57.10;;;;;;5008585;28;20186;-59
2024/02/28 05:52:16;;;;;;;16.53;13.27;;;13.30;56.90;;;;;;5011521;28;20526;-59
2024/02/28 05:54:41;;;;;;;17.27;14.17;;;13.40;56.70;;;;;;5009068;28;20650;-58
2024/02/28 05:57:07;;;;;;;19.30;14.30;;;13.40;56.60;;;;;;5012051;28;20748;-57
2024/02/28 05:59:32;;;;;;;17.70;13.20;;;13.30;56.60;;;;;;5005391;28;20178;-57
2024/02/28 06:01:58;;;;;;;20.97;13.90;;;13.40;56.50;;;;;;5007129;28;20566;-59
2024/02/28 06:04:24;;;;;;;16.37;13.10;;;13.30;56.70;;;;;;5008617;28;20187;-57
2024/02/28 06:06:50;;;;;;;15.83;13.07;;;13.20;56.70;;;;;;5013522;28;20272;-58
2024/02/28 06:09:16;;;;;;;17.00;13.67;;;13.30;56.90;;;;;;5007915;28;21003;-58
2024/02/28 06:11:41;;;;;;;16.63;13.70;;;13.20;56.60;;;;;;5006086;28;20469;-59
2024/02/28 06:14:07;;;;;;;17.87;15.13;;;13.30;56.60;;;;;;5008009;28;20202;-57
2024/02/28 06:16:32;;;;;;;18.07;14.07;;;13.30;56.60;;;;;;5009186;28;20209;-59
2024/02/28 06:18:58;;;;;;;18.67;13.93;;;13.20;56.60;;;;;;5011611;28;20178;-60
2024/02/28 06:21:24;;;;;;;19.23;15.27;;;13.30;56.70;;;;;;5011593;28;20180;-56
2024/02/28 06:23:49;;;;;;;21.03;14.57;;;13.30;56.60;;;;;;5010516;28;20193;-58
2024/02/28 06:26:16;;;;;;;23.40;14.77;;;13.40;56.60;;;;;;5011630;28;20201;-60
2024/02/28 06:28:45;;;;;;;18.43;13.80;;;13.30;56.60;;;;;;5011482;28;20261;-59
2024/02/28 06:31:17;;;;;;;17.33;13.20;;;13.40;56.80;;;;;;5009107;28;20482;-59
2024/02/28 06:33:44;;;;;;;22.73;15.07;;;13.50;56.50;;;;;;5009856;28;20516;-57
2024/02/28 06:36:09;;;;;;;17.83;14.10;;;13.60;56.20;;;;;;5011856;28;20437;-60
2024/02/28 06:38:35;;;;;;;15.30;13.17;;;13.60;56.00;;;;;;5006540;28;20449;-57
2024/02/28 06:41:05;;;;;;;15.70;13.60;;;13.70;55.90;;;;;;5003013;28;20182;-58
2024/02/28 06:43:34;;;;;;;18.70;14.07;;;13.70;55.90;;;;;;5000204;28;20660;-60
2024/02/28 06:45:59;;;;;;;17.03;13.07;;;13.70;55.80;;;;;;5008172;28;20980;-58
2024/02/28 06:48:25;;;;;;;18.47;14.40;;;13.70;55.70;;;;;;5008248;28;20449;-58
2024/02/28 06:50:50;;;;;;;18.57;14.30;;;13.70;55.50;;;;;;5011766;28;20182;-60
2024/02/28 06:53:17;;;;;;;16.80;12.80;;;13.70;55.50;;;;;;5006980;28;20189;-59
2024/02/28 06:55:44;;;;;;;17.23;14.43;;;13.70;55.60;;;;;;5010354;28;20186;-58
2024/02/28 06:58:09;;;;;;;17.67;14.93;;;13.70;55.50;;;;;;5005807;28;20446;-60
2024/02/28 07:00:35;;;;;;;19.10;13.90;;;13.70;55.60;;;;;;5005296;28;20455;-59
2024/02/28 07:03:01;;;;;;;20.77;15.20;;;13.70;55.40;;;;;;5008714;28;20190;-60
2024/02/28 07:05:26;;;;;;;18.53;14.47;;;13.70;55.50;;;;;;5006932;28;20448;-59
2024/02/28 07:07:52;;;;;;;16.73;14.00;;;13.80;55.50;;;;;;5011338;28;20264;-58
2024/02/28 07:10:17;;;;;;;17.87;15.17;;;13.80;55.30;;;;;;5007217;28;20193;-56
2024/02/28 07:12:43;;;;;;;17.37;15.00;;;13.70;55.30;;;;;;5001231;28;20222;-59
2024/02/28 07:15:08;;;;;;;19.83;14.40;;;13.70;55.60;;;;;;5009066;28;20193;-58
2024/02/28 07:17:34;;;;;;;19.07;13.80;;;13.70;55.60;;;;;;5010965;28;20233;-59
2024/02/28 07:19:59;;;;;;;18.53;14.63;;;13.70;55.40;;;;;;5011192;28;20185;-58
2024/02/28 07:22:25;;;;;;;19.97;14.20;;;13.70;55.60;;;;;;5006543;28;20198;-60
2024/02/28 07:24:51;;;;;;;17.50;14.60;;;13.70;55.40;;;;;;5010320;28;20183;-59
2024/02/28 07:27:16;;;;;;;18.60;13.97;;;13.80;55.40;;;;;;5007369;28;20209;-59
2024/02/28 07:29:42;;;;;;;18.67;15.20;;;13.80;55.40;;;;;;5010927;28;20218;-58
2024/02/28 07:32:07;;;;;;;18.73;14.40;;;13.80;55.30;;;;;;5002206;28;20214;-57
2024/02/28 07:34:33;;;;;;;18.53;14.63;;;13.80;55.30;;;;;;5009255;28;20232;-58
2024/02/28 07:36:59;;;;;;;20.40;15.33;;;13.80;55.30;;;;;;5008001;28;20202;-58
2024/02/28 07:39:25;;;;;;;19.50;14.50;;;13.90;55.30;;;;;;5009974;28;20435;-58
2024/02/28 07:41:50;;;;;;;18.67;14.60;;;13.90;55.40;;;;;;5003943;28;20185;-59
2024/02/28 07:44:16;;;;;;;18.00;14.37;;;13.90;55.30;;;;;;5006940;28;20720;-57
2024/02/28 07:46:42;;;;;;;16.90;13.43;;;13.90;55.20;;;;;;5003235;28;20578;-57
2024/02/28 07:49:08;;;;;;;19.67;13.70;;;13.90;55.20;;;;;;5005604;28;20178;-57
2024/02/28 07:51:33;;;;;;;26.70;14.67;;;13.90;55.10;;;;;;5009102;28;20217;-59
2024/02/28 07:53:59;;;;;;;18.80;15.00;;;13.80;55.20;;;;;;5004229;28;20186;-56
2024/02/28 07:56:25;;;;;;;18.80;14.40;;;13.80;55.30;;;;;;5010633;28;20252;-60
2024/02/28 07:58:50;;;;;;;18.63;15.37;;;13.80;55.50;;;;;;5011040;28;20205;-58
2024/02/28 08:01:16;;;;;;;18.13;13.60;;;13.70;55.40;;;;;;5007378;28;20190;-56
2024/02/28 08:03:42;;;;;;;20.60;16.10;;;13.70;55.50;;;;;;5010698;28;20201;-59
2024/02/28 08:06:08;;;;;;;22.03;14.53;;;13.80;55.50;;;;;;5010170;28;20570;-57
2024/02/28 08:08:37;;;;;;;18.40;15.80;;;13.80;55.40;;;;;;5005807;28;20441;-58
2024/02/28 08:11:03;;;;;;;16.67;14.63;;;13.80;55.40;;;;;;5004028;28;20536;-59
2024/02/28 08:13:29;;;;;;;17.77;14.20;;;13.80;55.40;;;;;;5009980;28;20449;-59
2024/02/28 08:15:55;;;;;;;20.23;14.47;;;13.70;55.50;;;;;;5006778;28;20491;-59
2024/02/28 08:18:20;;;;;;;17.57;14.07;;;13.60;55.50;;;;;;5007763;28;20265;-58
2024/02/28 08:20:46;;;;;;;16.10;14.07;;;13.60;55.60;;;;;;5008276;28;20529;-58
2024/02/28 08:23:11;;;;;;;23.03;14.80;;;13.60;55.80;;;;;;5010698;28;20193;-55
2024/02/28 08:25:37;;;;;;;17.20;14.90;;;13.50;56.00;;;;;;5007381;28;20186;-58
2024/02/28 08:28:03;;;;;;;18.43;14.20;;;13.30;56.00;;;;;;5007266;28;20206;-59
2024/02/28 08:30:29;;;;;;;19.60;15.07;;;13.40;56.10;;;;;;5010292;28;20951;-58
2024/02/28 08:32:54;;;;;;;19.70;13.67;;;13.40;55.90;;;;;;5009019;28;20919;-58
2024/02/28 08:35:20;;;;;;;18.80;14.17;;;13.40;56.10;;;;;;5008449;28;20650;-57
2024/02/28 08:37:45;;;;;;;19.30;15.23;;;13.50;56.00;;;;;;5003691;28;21022;-59
2024/02/28 08:40:12;;;;;;;23.73;14.60;;;13.50;55.70;;;;;;5008041;28;20189;-59
2024/02/28 08:42:38;;;;;;;20.87;13.87;;;13.50;55.80;;;;;;5002922;28;20206;-58
2024/02/28 08:45:05;;;;;;;14.47;12.43;;;13.50;55.70;;;;;;5009771;28;20432;-58
2024/02/28 08:47:31;;;;;;;19.77;14.67;;;13.60;55.70;;;;;;5004486;28;20206;-58
2024/02/28 08:49:57;;;;;;;27.27;14.33;;;13.60;55.60;;;;;;5010840;28;21026;-56
2024/02/28 08:52:22;;;;;;;19.60;14.50;;;13.60;55.50;;;;;;5007420;28;20627;-58
2024/02/28 08:54:48;;;;;;;19.60;15.23;;;13.60;55.60;;;;;;5009999;28;20185;-59
2024/02/28 08:57:14;;;;;;;20.03;15.57;;;13.70;55.60;;;;;;5006213;28;20288;-57
2024/02/28 08:59:40;;;;;;;19.97;15.30;;;13.80;55.50;;;;;;5008238;28;20198;-57
2024/02/28 09:02:07;;;;;;;19.37;14.67;;;13.90;55.40;;;;;;5001101;28;20452;-59
2024/02/28 09:04:33;;;;;;;20.63;15.17;;;13.90;55.10;;;;;;5006830;28;20244;-59
2024/02/28 09:06:58;;;;;;;24.20;15.20;;;13.90;54.90;;;;;;5008072;28;20473;-60
2024/02/28 09:09:24;;;;;;;20.63;15.37;;;14.00;55.00;;;;;;5009266;28;20259;-59
2024/02/28 09:11:50;;;;;;;19.77;15.37;;;14.00;54.90;;;;;;5009300;28;20308;-59
2024/02/28 09:14:15;;;;;;;20.00;14.70;;;14.00;55.00;;;;;;5006193;28;20196;-59
2024/02/28 09:16:41;;;;;;;20.03;15.10;;;14.00;55.00;;;;;;5005597;28;20212;-61
2024/02/28 09:19:06;;;;;;;21.60;15.77;;;14.10;55.00;;;;;;5003998;28;20201;-60
2024/02/28 09:21:32;;;;;;;19.27;16.80;;;14.10;54.90;;;;;;5009165;28;20185;-60
2024/02/28 09:23:57;;;;;;;19.27;15.40;;;14.10;54.60;;;;;;5004460;28;20178;-60
2024/02/28 09:26:23;;;;;;;21.70;15.37;;;14.20;54.70;;;;;;5004264;28;20547;-58
2024/02/28 09:28:48;;;;;;;20.37;15.27;;;14.20;54.60;;;;;;5007540;28;20356;-59
2024/02/28 09:31:15;;;;;;;25.80;17.43;;;14.20;54.80;;;;;;5004027;28;20263;-58
2024/02/28 09:33:41;;;;;;;19.80;15.40;;;14.20;54.50;;;;;;5011800;28;20235;-60
2024/02/28 09:36:06;;;;;;;20.20;15.50;;;14.30;54.50;;;;;;5008076;28;20873;-59
2024/02/28 09:38:34;;;;;;;15.73;11.63;;;14.20;54.50;;;;;;5005391;28;20182;-59
2024/02/28 09:41:00;;;;;;;20.93;15.77;;;14.30;54.70;;;;;;5006120;28;20197;-60
2024/02/28 09:43:30;;;;;;;20.80;15.83;;;14.40;54.70;;;;;;5007292;28;20425;-60
2024/02/28 09:46:06;;;;;;;21.10;15.70;;;14.50;54.50;;;;;;4999006;28;20186;-60
2024/02/28 09:48:32;;;;;;;18.83;14.93;;;14.40;54.10;;;;;;5003019;28;20462;-62
2024/02/28 09:50:57;;;;;;;22.00;17.10;;;14.50;54.30;;;;;;5006691;28;20440;-59
2024/02/28 09:53:23;;;;;;;18.40;15.60;;;14.60;53.80;;;;;;5007919;28;20321;-60
2024/02/28 09:55:52;;;;;;;20.97;15.80;;;14.60;53.40;;;;;;5000731;28;20756;-59
2024/02/28 09:58:21;;;;;;;21.33;16.40;;;14.60;53.20;;;;;;5005410;28;20191;-60
2024/02/28 10:00:47;;;;;;;23.17;14.30;;;14.60;53.20;;;;;;5004512;28;20441;-59
2024/02/28 10:03:16;;;;;;;23.80;15.87;;;14.70;53.30;;;;;;5005910;28;20495;-60
2024/02/28 10:05:42;;;;;;;21.13;16.00;;;14.70;53.60;;;;;;5004229;28;21032;-59
2024/02/28 10:08:09;;;;;;;23.80;16.13;;;14.80;53.20;;;;;;5000143;28;20444;-59
2024/02/28 10:10:38;;;;;;;22.40;15.63;;;14.80;53.00;;;;;;5002621;28;20451;-60
2024/02/28 10:13:03;;;;;;;19.77;15.47;;;14.90;52.70;;;;;;5003043;28;20492;-60
2024/02/28 10:15:30;;;;;;;23.50;17.13;;;14.90;52.70;;;;;;5003927;28;20484;-59
2024/02/28 10:17:56;;;;;;;20.13;14.90;;;14.90;52.70;;;;;;5004143;28;20228;-59
2024/02/28 10:20:21;;;;;;;22.40;15.67;;;15.00;52.50;;;;;;5007487;28;20433;-61
2024/02/28 10:22:47;;;;;;;22.97;16.23;;;14.90;52.30;;;;;;5003759;28;20178;-61
2024/02/28 10:25:13;;;;;;;20.87;16.20;;;14.90;52.40;;;;;;5010366;28;20190;-60
2024/02/28 10:27:41;;;;;;;21.03;15.37;;;14.90;52.60;;;;;;5007382;28;20214;-61
2024/02/28 10:30:07;;;;;;;24.80;15.50;;;15.00;53.00;;;;;;5005385;28;20826;-60
2024/02/28 10:32:36;;;;;;;21.27;15.70;;;15.10;52.70;;;;;;5003810;28;20488;-59
2024/02/28 10:35:03;;;;;;;18.40;15.03;;;15.10;52.50;;;;;;4999605;28;20582;-60
2024/02/28 10:37:31;;;;;;;21.10;15.43;;;15.10;52.70;;;;;;5007464;28;20471;-58
2024/02/28 10:39:58;;;;;;;22.17;15.70;;;15.10;53.00;;;;;;5005166;28;20523;-58
2024/02/28 10:42:29;;;;;;;20.97;15.13;;;15.20;52.40;;;;;;5005970;28;20523;-61
2024/02/28 10:44:58;;;;;;;19.20;14.07;;;15.30;52.20;;;;;;5007091;28;20524;-59
2024/02/28 10:47:25;;;;;;;21.53;15.57;;;15.20;51.80;;;;;;5008785;28;20452;-61
2024/02/28 10:49:50;;;;;;;24.70;15.27;;;15.10;51.90;;;;;;5007777;28;20445;-60
2024/02/28 10:52:21;;;;;;;21.90;15.00;;;15.10;52.20;;;;;;5007533;28;20480;-61
2024/02/28 10:54:54;;;;;;;21.97;15.50;;;14.90;52.40;;;;;;5007541;28;20700;-60
2024/02/28 10:57:21;;;;;;;20.87;14.47;;;14.90;52.40;;;;;;5008483;28;20448;-60
2024/02/28 10:59:47;;;;;;;25.77;17.40;;;14.90;52.70;;;;;;5002965;28;20531;-59
2024/02/28 11:02:14;;;;;;;26.17;17.33;;;15.00;52.20;;;;;;5007589;28;20460;-60
2024/02/28 11:04:40;;;;;;;23.97;17.63;;;15.10;52.00;;;;;;5005343;28;20506;-60
2024/02/28 11:07:06;;;;;;;25.33;17.03;;;15.10;52.00;;;;;;5009089;28;20460;-61
2024/02/28 11:09:32;;;;;;;20.33;16.17;;;15.20;51.90;;;;;;5009676;28;20447;-59
2024/02/28 11:11:58;;;;;;;25.43;18.60;;;15.10;51.40;;;;;;5010017;28;20275;-58
2024/02/28 11:14:26;;;;;;;29.53;17.40;;;15.10;51.60;;;;;;5007259;28;20436;-60
2024/02/28 11:17:03;;;;;;;29.57;17.00;;;15.10;52.00;;;;;;5009447;28;20213;-60
2024/02/28 11:19:32;;;;;;;26.53;19.53;;;15.10;52.10;;;;;;5005931;28;20443;-60
2024/02/28 11:21:59;;;;;;;23.83;16.60;;;15.10;52.10;;;;;;5005940;28;20448;-59
2024/02/28 11:24:32;;;;;;;25.60;17.07;;;15.10;51.90;;;;;;5004550;28;20428;-61
2024/02/28 11:26:58;;;;;;;26.27;17.73;;;15.20;51.90;;;;;;5008554;28;20984;-60
2024/02/28 11:29:28;;;;;;;28.00;18.20;;;15.20;51.70;;;;;;5005160;28;20429;-59
2024/02/28 11:31:54;;;;;;;25.43;16.53;;;15.20;52.10;;;;;;5005611;28;20226;-60
2024/02/28 11:34:20;;;;;;;24.73;18.23;;;15.30;52.30;;;;;;5004871;28;20514;-60
2024/02/28 11:36:50;;;;;;;21.70;15.57;;;15.30;52.00;;;;;;5001725;28;22139;-59
2024/02/28 11:39:17;;;;;;;23.93;17.07;;;15.30;51.40;;;;;;5006265;28;20551;-59
2024/02/28 11:41:46;;;;;;;28.53;20.77;;;15.20;51.50;;;;;;5006007;28;20444;-59
2024/02/28 11:44:15;;;;;;;30.70;20.63;;;15.20;51.70;;;;;;5008395;28;20426;-60
2024/02/28 11:46:48;;;;;;;29.40;18.80;;;15.20;51.90;;;;;;5009332;28;20488;-60
2024/02/28 11:49:14;;;;;;;26.57;17.50;;;15.10;52.20;;;;;;5006991;28;20960;-60
2024/02/28 11:51:44;;;;;;;24.20;16.73;;;15.10;52.00;;;;;;5003939;28;20469;-60
2024/02/28 11:54:13;;;;;;;23.37;16.47;;;15.00;51.90;;;;;;5009297;28;20445;-61
2024/02/28 11:56:39;;;;;;;23.23;15.80;;;15.00;52.00;;;;;;5009232;28;20515;-58
2024/02/28 11:59:05;;;;;;;24.40;18.17;;;14.90;52.30;;;;;;5004448;28;21012;-60
2024/02/28 12:01:41;;;;;;;25.00;16.53;;;14.90;52.40;;;;;;5004432;28;20472;-59
2024/02/28 12:04:07;;;;;;;26.23;17.50;;;14.80;52.40;;;;;;5009107;28;20290;-59
2024/02/28 12:06:34;;;;;;;22.80;16.43;;;14.80;52.30;;;;;;5009252;28;20999;-60
2024/02/28 12:09:00;;;;;;;27.73;18.37;;;14.70;52.70;;;;;;5007467;28;20452;-60
2024/02/28 12:11:29;;;;;;;22.47;14.27;;;14.70;52.50;;;;;;5008492;28;20477;-60
2024/02/28 12:13:55;;;;;;;24.70;15.77;;;14.70;52.60;;;;;;5009274;28;20428;-61
2024/02/28 12:16:27;;;;;;;24.17;15.97;;;14.60;52.70;;;;;;5005043;28;20460;-60
2024/02/28 12:18:53;;;;;;;23.70;16.23;;;14.60;52.80;;;;;;5006196;28;20433;-59
2024/02/28 12:21:19;;;;;;;24.83;16.70;;;14.60;52.80;;;;;;5009185;28;20560;-60
2024/02/28 12:23:46;;;;;;;23.50;14.60;;;14.60;53.00;;;;;;5007151;28;20255;-60